sensor_id;sensor_type;location;lat;lon;timestamp;P1;durP1;ratioP1;P2;durP2;ratioP2
43150;SDS011;28755;51.478;5.702;2022-09-09T00:01:55;5.72;;;1.77;;
43150;SDS011;28755;51.478;5.702;2022-09-09T00:04:30;6.03;;;1.67;;
43150;SDS011;28755;51.478;5.702;2022-09-09T00:12:50;5.68;;;1.83;;
43150;SDS011;28755;51.478;5.702;2022-09-09T00:15:25;6.32;;;2.15;;
43150;SDS011;28755;51.478;5.702;2022-09-09T00:18:17;3.65;;;1.60;;
43150;SDS011;28755;51.478;5.702;2022-09-09T00:21:16;4.47;;;2.10;;
43150;SDS011;28755;51.478;5.702;2022-09-09T00:23:44;6.57;;;2.05;;
43150;SDS011;28755;51.478;5.702;2022-09-09T00:26:19;4.72;;;1.88;;
43150;SDS011;28755;51.478;5.702;2022-09-09T00:31:34;7.03;;;2.33;;
43150;SDS011;28755;51.478;5.702;2022-09-09T00:34:09;2.45;;;1.88;;
43150;SDS011;28755;51.478;5.702;2022-09-09T00:36:48;6.28;;;2.28;;
43150;SDS011;28755;51.478;5.702;2022-09-09T00:39:27;4.85;;;1.88;;
43150;SDS011;28755;51.478;5.702;2022-09-09T00:44:41;3.25;;;1.98;;
43150;SDS011;28755;51.478;5.702;2022-09-09T00:52:59;3.67;;;1.65;;
43150;SDS011;28755;51.478;5.702;2022-09-09T00:56:00;4.60;;;1.75;;
43150;SDS011;28755;51.478;5.702;2022-09-09T00:58:37;4.03;;;1.65;;
43150;SDS011;28755;51.478;5.702;2022-09-09T01:01:08;5.22;;;1.90;;
43150;SDS011;28755;51.478;5.702;2022-09-09T01:06:11;4.63;;;2.00;;
43150;SDS011;28755;51.478;5.702;2022-09-09T01:08:52;5.68;;;2.30;;
43150;SDS011;28755;51.478;5.702;2022-09-09T01:16:56;6.47;;;2.10;;
43150;SDS011;28755;51.478;5.702;2022-09-09T01:22:26;5.07;;;2.50;;
43150;SDS011;28755;51.478;5.702;2022-09-09T01:27:44;5.25;;;2.25;;
43150;SDS011;28755;51.478;5.702;2022-09-09T01:30:13;6.97;;;2.80;;
43150;SDS011;28755;51.478;5.702;2022-09-09T01:32:46;7.55;;;2.90;;
43150;SDS011;28755;51.478;5.702;2022-09-09T01:35:28;7.00;;;2.70;;
43150;SDS011;28755;51.478;5.702;2022-09-09T01:37:57;7.53;;;2.97;;
43150;SDS011;28755;51.478;5.702;2022-09-09T01:40:23;6.25;;;2.90;;
43150;SDS011;28755;51.478;5.702;2022-09-09T01:42:50;3.95;;;2.90;;
43150;SDS011;28755;51.478;5.702;2022-09-09T01:45:16;8.88;;;3.25;;
43150;SDS011;28755;51.478;5.702;2022-09-09T01:47:42;7.93;;;3.22;;
43150;SDS011;28755;51.478;5.702;2022-09-09T01:50:09;5.28;;;3.10;;
43150;SDS011;28755;51.478;5.702;2022-09-09T01:52:36;5.53;;;3.20;;
43150;SDS011;28755;51.478;5.702;2022-09-09T01:55:03;6.65;;;3.20;;
43150;SDS011;28755;51.478;5.702;2022-09-09T01:57:31;6.45;;;3.22;;
43150;SDS011;28755;51.478;5.702;2022-09-09T02:00:11;9.18;;;4.05;;
43150;SDS011;28755;51.478;5.702;2022-09-09T02:05:16;6.65;;;4.05;;
43150;SDS011;28755;51.478;5.702;2022-09-09T02:07:46;13.70;;;4.28;;
43150;SDS011;28755;51.478;5.702;2022-09-09T02:10:21;7.63;;;3.67;;
43150;SDS011;28755;51.478;5.702;2022-09-09T02:12:55;7.38;;;3.92;;
43150;SDS011;28755;51.478;5.702;2022-09-09T02:18:07;4.63;;;3.63;;
43150;SDS011;28755;51.478;5.702;2022-09-09T02:20:37;9.00;;;3.80;;
43150;SDS011;28755;51.478;5.702;2022-09-09T02:23:03;7.88;;;3.85;;
43150;SDS011;28755;51.478;5.702;2022-09-09T02:25:30;7.22;;;3.75;;
43150;SDS011;28755;51.478;5.702;2022-09-09T02:27:57;6.50;;;3.65;;
43150;SDS011;28755;51.478;5.702;2022-09-09T02:30:23;10.38;;;3.95;;
43150;SDS011;28755;51.478;5.702;2022-09-09T02:32:50;9.77;;;3.88;;
43150;SDS011;28755;51.478;5.702;2022-09-09T02:35:22;7.00;;;4.10;;
43150;SDS011;28755;51.478;5.702;2022-09-09T02:37:52;13.30;;;3.83;;
43150;SDS011;28755;51.478;5.702;2022-09-09T02:40:21;8.38;;;4.40;;
43150;SDS011;28755;51.478;5.702;2022-09-09T02:42:47;8.30;;;4.15;;
43150;SDS011;28755;51.478;5.702;2022-09-09T02:45:16;8.32;;;4.03;;
43150;SDS011;28755;51.478;5.702;2022-09-09T02:47:50;8.63;;;4.32;;
43150;SDS011;28755;51.478;5.702;2022-09-09T02:53:14;9.38;;;3.97;;
43150;SDS011;28755;51.478;5.702;2022-09-09T02:58:21;7.53;;;3.60;;
43150;SDS011;28755;51.478;5.702;2022-09-09T03:00:47;6.20;;;3.40;;
43150;SDS011;28755;51.478;5.702;2022-09-09T03:03:14;9.55;;;4.05;;
43150;SDS011;28755;51.478;5.702;2022-09-09T03:05:41;11.98;;;3.97;;
43150;SDS011;28755;51.478;5.702;2022-09-09T03:08:07;12.95;;;3.80;;
43150;SDS011;28755;51.478;5.702;2022-09-09T03:10:34;10.07;;;3.80;;
43150;SDS011;28755;51.478;5.702;2022-09-09T03:13:00;13.15;;;3.95;;
43150;SDS011;28755;51.478;5.702;2022-09-09T03:15:26;12.73;;;4.15;;
43150;SDS011;28755;51.478;5.702;2022-09-09T03:17:55;8.25;;;3.80;;
43150;SDS011;28755;51.478;5.702;2022-09-09T03:20:21;10.98;;;4.03;;
43150;SDS011;28755;51.478;5.702;2022-09-09T03:22:54;14.17;;;4.13;;
43150;SDS011;28755;51.478;5.702;2022-09-09T03:25:21;9.63;;;4.25;;
43150;SDS011;28755;51.478;5.702;2022-09-09T03:27:50;14.38;;;4.47;;
43150;SDS011;28755;51.478;5.702;2022-09-09T03:30:19;8.02;;;3.78;;
43150;SDS011;28755;51.478;5.702;2022-09-09T03:32:48;14.13;;;4.30;;
43150;SDS011;28755;51.478;5.702;2022-09-09T03:35:14;9.30;;;4.47;;
43150;SDS011;28755;51.478;5.702;2022-09-09T03:37:40;11.57;;;3.97;;
43150;SDS011;28755;51.478;5.702;2022-09-09T03:40:06;6.95;;;3.78;;
43150;SDS011;28755;51.478;5.702;2022-09-09T03:42:34;8.00;;;3.67;;
43150;SDS011;28755;51.478;5.702;2022-09-09T03:45:02;8.00;;;3.63;;
43150;SDS011;28755;51.478;5.702;2022-09-09T03:47:32;11.43;;;3.72;;
43150;SDS011;28755;51.478;5.702;2022-09-09T03:49:58;10.88;;;3.33;;
43150;SDS011;28755;51.478;5.702;2022-09-09T03:52:23;12.25;;;3.67;;
43150;SDS011;28755;51.478;5.702;2022-09-09T03:54:51;9.85;;;3.33;;
43150;SDS011;28755;51.478;5.702;2022-09-09T03:57:17;8.95;;;3.72;;
43150;SDS011;28755;51.478;5.702;2022-09-09T03:59:43;9.95;;;3.53;;
43150;SDS011;28755;51.478;5.702;2022-09-09T04:02:09;14.27;;;3.75;;
43150;SDS011;28755;51.478;5.702;2022-09-09T04:04:35;8.70;;;3.22;;
43150;SDS011;28755;51.478;5.702;2022-09-09T04:07:00;10.65;;;4.18;;
43150;SDS011;28755;51.478;5.702;2022-09-09T04:09:26;11.02;;;3.42;;
43150;SDS011;28755;51.478;5.702;2022-09-09T04:11:52;9.30;;;3.65;;
43150;SDS011;28755;51.478;5.702;2022-09-09T04:14:18;13.48;;;4.13;;
43150;SDS011;28755;51.478;5.702;2022-09-09T04:16:44;11.32;;;4.30;;
43150;SDS011;28755;51.478;5.702;2022-09-09T04:19:10;12.88;;;4.15;;
43150;SDS011;28755;51.478;5.702;2022-09-09T04:21:41;11.88;;;3.75;;
43150;SDS011;28755;51.478;5.702;2022-09-09T04:24:07;8.18;;;3.92;;
43150;SDS011;28755;51.478;5.702;2022-09-09T04:26:34;9.10;;;3.65;;
43150;SDS011;28755;51.478;5.702;2022-09-09T04:29:01;11.20;;;3.40;;
43150;SDS011;28755;51.478;5.702;2022-09-09T04:31:27;8.52;;;3.17;;
43150;SDS011;28755;51.478;5.702;2022-09-09T04:33:53;12.82;;;3.92;;
43150;SDS011;28755;51.478;5.702;2022-09-09T04:36:19;13.40;;;3.58;;
43150;SDS011;28755;51.478;5.702;2022-09-09T04:38:45;12.43;;;3.47;;
43150;SDS011;28755;51.478;5.702;2022-09-09T04:41:11;12.65;;;3.92;;
43150;SDS011;28755;51.478;5.702;2022-09-09T04:43:37;13.77;;;3.95;;
43150;SDS011;28755;51.478;5.702;2022-09-09T04:46:04;10.70;;;3.38;;
43150;SDS011;28755;51.478;5.702;2022-09-09T04:48:30;12.45;;;3.38;;
43150;SDS011;28755;51.478;5.702;2022-09-09T04:53:22;13.77;;;3.60;;
43150;SDS011;28755;51.478;5.702;2022-09-09T04:55:48;15.40;;;4.25;;
43150;SDS011;28755;51.478;5.702;2022-09-09T04:58:14;15.63;;;4.28;;
43150;SDS011;28755;51.478;5.702;2022-09-09T05:00:40;20.52;;;3.83;;
43150;SDS011;28755;51.478;5.702;2022-09-09T05:03:05;12.95;;;3.80;;
43150;SDS011;28755;51.478;5.702;2022-09-09T05:05:33;9.55;;;3.40;;
43150;SDS011;28755;51.478;5.702;2022-09-09T05:08:06;17.13;;;3.17;;
43150;SDS011;28755;51.478;5.702;2022-09-09T05:10:34;11.18;;;3.45;;
43150;SDS011;28755;51.478;5.702;2022-09-09T05:13:02;14.40;;;3.65;;
43150;SDS011;28755;51.478;5.702;2022-09-09T05:15:29;12.48;;;3.33;;
43150;SDS011;28755;51.478;5.702;2022-09-09T05:18:00;11.18;;;3.05;;
43150;SDS011;28755;51.478;5.702;2022-09-09T05:20:30;9.82;;;3.50;;
43150;SDS011;28755;51.478;5.702;2022-09-09T05:22:56;14.17;;;3.53;;
43150;SDS011;28755;51.478;5.702;2022-09-09T05:25:22;14.30;;;3.22;;
43150;SDS011;28755;51.478;5.702;2022-09-09T05:27:50;13.25;;;3.55;;
43150;SDS011;28755;51.478;5.702;2022-09-09T05:30:18;13.45;;;2.95;;
43150;SDS011;28755;51.478;5.702;2022-09-09T05:32:44;13.40;;;3.60;;
43150;SDS011;28755;51.478;5.702;2022-09-09T05:35:09;10.05;;;3.25;;
43150;SDS011;28755;51.478;5.702;2022-09-09T05:37:35;8.52;;;3.00;;
43150;SDS011;28755;51.478;5.702;2022-09-09T05:40:01;19.08;;;3.55;;
43150;SDS011;28755;51.478;5.702;2022-09-09T05:42:29;12.30;;;3.50;;
43150;SDS011;28755;51.478;5.702;2022-09-09T05:44:55;10.23;;;3.22;;
43150;SDS011;28755;51.478;5.702;2022-09-09T05:47:23;10.02;;;3.35;;
43150;SDS011;28755;51.478;5.702;2022-09-09T05:49:48;14.40;;;3.50;;
43150;SDS011;28755;51.478;5.702;2022-09-09T05:52:14;10.70;;;3.35;;
43150;SDS011;28755;51.478;5.702;2022-09-09T05:54:39;13.70;;;3.47;;
43150;SDS011;28755;51.478;5.702;2022-09-09T05:57:06;12.40;;;3.55;;
43150;SDS011;28755;51.478;5.702;2022-09-09T05:59:32;11.65;;;3.65;;
43150;SDS011;28755;51.478;5.702;2022-09-09T06:01:57;16.98;;;4.13;;
43150;SDS011;28755;51.478;5.702;2022-09-09T06:04:23;12.60;;;3.60;;
43150;SDS011;28755;51.478;5.702;2022-09-09T06:06:49;15.57;;;3.35;;
43150;SDS011;28755;51.478;5.702;2022-09-09T06:09:15;13.93;;;3.70;;
43150;SDS011;28755;51.478;5.702;2022-09-09T06:11:41;13.43;;;3.60;;
43150;SDS011;28755;51.478;5.702;2022-09-09T06:14:07;9.63;;;3.88;;
43150;SDS011;28755;51.478;5.702;2022-09-09T06:16:33;18.05;;;3.65;;
43150;SDS011;28755;51.478;5.702;2022-09-09T06:19:00;11.05;;;3.28;;
43150;SDS011;28755;51.478;5.702;2022-09-09T06:21:28;12.30;;;3.10;;
43150;SDS011;28755;51.478;5.702;2022-09-09T06:23:55;11.30;;;3.65;;
43150;SDS011;28755;51.478;5.702;2022-09-09T06:28:52;12.32;;;3.42;;
43150;SDS011;28755;51.478;5.702;2022-09-09T06:31:20;16.15;;;3.60;;
43150;SDS011;28755;51.478;5.702;2022-09-09T06:33:47;18.30;;;3.67;;
43150;SDS011;28755;51.478;5.702;2022-09-09T06:36:17;22.27;;;3.35;;
43150;SDS011;28755;51.478;5.702;2022-09-09T06:38:47;10.25;;;3.25;;
43150;SDS011;28755;51.478;5.702;2022-09-09T06:41:14;13.88;;;3.47;;
43150;SDS011;28755;51.478;5.702;2022-09-09T06:43:41;14.77;;;3.33;;
43150;SDS011;28755;51.478;5.702;2022-09-09T06:46:08;15.35;;;3.50;;
43150;SDS011;28755;51.478;5.702;2022-09-09T06:48:40;11.93;;;3.30;;
43150;SDS011;28755;51.478;5.702;2022-09-09T06:51:10;18.70;;;3.88;;
43150;SDS011;28755;51.478;5.702;2022-09-09T06:53:38;11.77;;;3.05;;
43150;SDS011;28755;51.478;5.702;2022-09-09T07:01:12;16.52;;;3.28;;
43150;SDS011;28755;51.478;5.702;2022-09-09T07:03:40;10.35;;;2.42;;
43150;SDS011;28755;51.478;5.702;2022-09-09T07:06:08;10.68;;;2.65;;
43150;SDS011;28755;51.478;5.702;2022-09-09T07:08:39;9.93;;;2.88;;
43150;SDS011;28755;51.478;5.702;2022-09-09T07:11:05;11.38;;;2.75;;
43150;SDS011;28755;51.478;5.702;2022-09-09T07:13:32;7.38;;;2.30;;
43150;SDS011;28755;51.478;5.702;2022-09-09T07:16:05;11.38;;;2.10;;
43150;SDS011;28755;51.478;5.702;2022-09-09T07:18:35;9.02;;;1.90;;
43150;SDS011;28755;51.478;5.702;2022-09-09T07:21:01;10.63;;;2.20;;
43150;SDS011;28755;51.478;5.702;2022-09-09T07:23:28;7.28;;;1.80;;
43150;SDS011;28755;51.478;5.702;2022-09-09T07:25:54;15.25;;;2.08;;
43150;SDS011;28755;51.478;5.702;2022-09-09T07:28:21;13.00;;;2.97;;
43150;SDS011;28755;51.478;5.702;2022-09-09T07:30:54;12.93;;;2.63;;
43150;SDS011;28755;51.478;5.702;2022-09-09T07:33:20;10.38;;;2.25;;
43150;SDS011;28755;51.478;5.702;2022-09-09T07:35:45;11.77;;;1.73;;
43150;SDS011;28755;51.478;5.702;2022-09-09T07:38:11;8.32;;;1.70;;
43150;SDS011;28755;51.478;5.702;2022-09-09T07:40:36;10.90;;;1.92;;
43150;SDS011;28755;51.478;5.702;2022-09-09T07:43:03;10.77;;;2.22;;
43150;SDS011;28755;51.478;5.702;2022-09-09T07:45:28;9.65;;;2.35;;
43150;SDS011;28755;51.478;5.702;2022-09-09T07:47:57;10.00;;;1.80;;
43150;SDS011;28755;51.478;5.702;2022-09-09T07:50:23;8.18;;;2.08;;
43150;SDS011;28755;51.478;5.702;2022-09-09T07:52:50;10.35;;;2.03;;
43150;SDS011;28755;51.478;5.702;2022-09-09T07:55:16;10.52;;;2.15;;
43150;SDS011;28755;51.478;5.702;2022-09-09T07:57:42;10.30;;;2.08;;
43150;SDS011;28755;51.478;5.702;2022-09-09T08:00:08;10.35;;;1.75;;
43150;SDS011;28755;51.478;5.702;2022-09-09T08:02:35;7.60;;;1.73;;
43150;SDS011;28755;51.478;5.702;2022-09-09T08:05:01;12.77;;;2.08;;
43150;SDS011;28755;51.478;5.702;2022-09-09T08:07:26;7.43;;;1.63;;
43150;SDS011;28755;51.478;5.702;2022-09-09T08:09:52;19.77;;;2.72;;
43150;SDS011;28755;51.478;5.702;2022-09-09T08:12:19;10.07;;;1.67;;
43150;SDS011;28755;51.478;5.702;2022-09-09T08:14:45;13.65;;;1.92;;
43150;SDS011;28755;51.478;5.702;2022-09-09T08:17:10;8.82;;;1.85;;
43150;SDS011;28755;51.478;5.702;2022-09-09T08:19:36;7.93;;;2.15;;
43150;SDS011;28755;51.478;5.702;2022-09-09T08:22:02;7.70;;;1.95;;
43150;SDS011;28755;51.478;5.702;2022-09-09T08:24:28;8.25;;;1.75;;
43150;SDS011;28755;51.478;5.702;2022-09-09T08:26:53;11.38;;;2.40;;
43150;SDS011;28755;51.478;5.702;2022-09-09T08:29:21;16.70;;;2.75;;
43150;SDS011;28755;51.478;5.702;2022-09-09T08:31:51;10.10;;;2.15;;
43150;SDS011;28755;51.478;5.702;2022-09-09T08:34:19;8.45;;;1.92;;
43150;SDS011;28755;51.478;5.702;2022-09-09T08:36:46;10.45;;;1.80;;
43150;SDS011;28755;51.478;5.702;2022-09-09T08:39:13;11.35;;;1.85;;
43150;SDS011;28755;51.478;5.702;2022-09-09T08:44:58;9.73;;;2.25;;
43150;SDS011;28755;51.478;5.702;2022-09-09T08:50:28;12.43;;;2.25;;
43150;SDS011;28755;51.478;5.702;2022-09-09T08:55:56;7.68;;;1.85;;
43150;SDS011;28755;51.478;5.702;2022-09-09T08:58:25;10.23;;;2.20;;
43150;SDS011;28755;51.478;5.702;2022-09-09T09:11:50;13.32;;;2.45;;
43150;SDS011;28755;51.478;5.702;2022-09-09T09:14:22;11.57;;;2.22;;
43150;SDS011;28755;51.478;5.702;2022-09-09T09:19:28;8.55;;;2.05;;
43150;SDS011;28755;51.478;5.702;2022-09-09T09:24:51;9.10;;;1.88;;
43150;SDS011;28755;51.478;5.702;2022-09-09T09:29:49;12.18;;;2.20;;
43150;SDS011;28755;51.478;5.702;2022-09-09T09:32:16;14.23;;;1.83;;
43150;SDS011;28755;51.478;5.702;2022-09-09T09:35:30;10.60;;;1.85;;
43150;SDS011;28755;51.478;5.702;2022-09-09T09:37:37;10.23;;;1.80;;
43150;SDS011;28755;51.478;5.702;2022-09-09T09:40:16;10.48;;;2.22;;
43150;SDS011;28755;51.478;5.702;2022-09-09T09:42:53;10.70;;;1.80;;
43150;SDS011;28755;51.478;5.702;2022-09-09T09:48:00;12.07;;;1.95;;
43150;SDS011;28755;51.478;5.702;2022-09-09T09:50:27;13.48;;;2.03;;
43150;SDS011;28755;51.478;5.702;2022-09-09T09:53:03;12.68;;;2.20;;
43150;SDS011;28755;51.478;5.702;2022-09-09T09:55:30;9.63;;;1.92;;
43150;SDS011;28755;51.478;5.702;2022-09-09T09:58:04;6.78;;;1.83;;
43150;SDS011;28755;51.478;5.702;2022-09-09T10:00:31;11.50;;;1.80;;
43150;SDS011;28755;51.478;5.702;2022-09-09T10:03:00;10.98;;;2.08;;
43150;SDS011;28755;51.478;5.702;2022-09-09T10:05:27;10.60;;;1.92;;
43150;SDS011;28755;51.478;5.702;2022-09-09T10:13:46;8.23;;;1.92;;
43150;SDS011;28755;51.478;5.702;2022-09-09T10:16:34;8.32;;;1.40;;
43150;SDS011;28755;51.478;5.702;2022-09-09T10:19:32;9.35;;;1.88;;
43150;SDS011;28755;51.478;5.702;2022-09-09T10:22:04;10.35;;;1.52;;
43150;SDS011;28755;51.478;5.702;2022-09-09T10:32:57;10.57;;;2.05;;
43150;SDS011;28755;51.478;5.702;2022-09-09T10:36:11;10.93;;;2.05;;
43150;SDS011;28755;51.478;5.702;2022-09-09T10:38:42;10.70;;;1.52;;
43150;SDS011;28755;51.478;5.702;2022-09-09T10:52:05;7.85;;;1.88;;
43150;SDS011;28755;51.478;5.702;2022-09-09T10:54:50;14.98;;;2.40;;
43150;SDS011;28755;51.478;5.702;2022-09-09T10:57:29;9.27;;;2.33;;
43150;SDS011;28755;51.478;5.702;2022-09-09T11:00:03;9.38;;;2.28;;
43150;SDS011;28755;51.478;5.702;2022-09-09T11:07:47;11.73;;;2.35;;
43150;SDS011;28755;51.478;5.702;2022-09-09T11:12:54;10.73;;;2.58;;
43150;SDS011;28755;51.478;5.702;2022-09-09T11:15:28;8.43;;;2.40;;
43150;SDS011;28755;51.478;5.702;2022-09-09T11:18:05;11.23;;;2.50;;
43150;SDS011;28755;51.478;5.702;2022-09-09T11:23:06;8.48;;;2.53;;
43150;SDS011;28755;51.478;5.702;2022-09-09T11:25:46;11.20;;;2.80;;
43150;SDS011;28755;51.478;5.702;2022-09-09T11:37:08;7.78;;;1.60;;
43150;SDS011;28755;51.478;5.702;2022-09-09T11:42:23;5.00;;;1.55;;
43150;SDS011;28755;51.478;5.702;2022-09-09T11:44:49;6.35;;;1.50;;
43150;SDS011;28755;51.478;5.702;2022-09-09T11:49:54;7.07;;;1.52;;
43150;SDS011;28755;51.478;5.702;2022-09-09T11:53:02;12.02;;;2.20;;
43150;SDS011;28755;51.478;5.702;2022-09-09T11:55:30;7.30;;;1.90;;
43150;SDS011;28755;51.478;5.702;2022-09-09T11:58:05;5.65;;;1.88;;
43150;SDS011;28755;51.478;5.702;2022-09-09T12:00:35;5.13;;;2.20;;
43150;SDS011;28755;51.478;5.702;2022-09-09T12:06:14;6.97;;;1.80;;
43150;SDS011;28755;51.478;5.702;2022-09-09T12:08:54;7.72;;;2.35;;
43150;SDS011;28755;51.478;5.702;2022-09-09T12:11:24;6.68;;;2.00;;
43150;SDS011;28755;51.478;5.702;2022-09-09T12:13:54;6.35;;;2.22;;
43150;SDS011;28755;51.478;5.702;2022-09-09T12:16:34;10.55;;;2.33;;
43150;SDS011;28755;51.478;5.702;2022-09-09T12:22:01;5.35;;;2.00;;
43150;SDS011;28755;51.478;5.702;2022-09-09T12:27:28;8.75;;;2.50;;
43150;SDS011;28755;51.478;5.702;2022-09-09T12:42:46;6.35;;;1.80;;
43150;SDS011;28755;51.478;5.702;2022-09-09T12:45:28;6.60;;;1.92;;
43150;SDS011;28755;51.478;5.702;2022-09-09T12:48:09;8.32;;;2.30;;
43150;SDS011;28755;51.478;5.702;2022-09-09T12:50:46;6.50;;;2.10;;
43150;SDS011;28755;51.478;5.702;2022-09-09T12:53:25;5.95;;;2.42;;
43150;SDS011;28755;51.478;5.702;2022-09-09T12:55:57;6.93;;;2.30;;
43150;SDS011;28755;51.478;5.702;2022-09-09T12:58:29;8.52;;;2.17;;
43150;SDS011;28755;51.478;5.702;2022-09-09T13:00:59;6.38;;;1.58;;
43150;SDS011;28755;51.478;5.702;2022-09-09T13:03:30;8.88;;;1.83;;
43150;SDS011;28755;51.478;5.702;2022-09-09T13:06:10;6.57;;;1.75;;
43150;SDS011;28755;51.478;5.702;2022-09-09T13:08:39;7.78;;;1.83;;
43150;SDS011;28755;51.478;5.702;2022-09-09T13:11:16;8.50;;;1.83;;
43150;SDS011;28755;51.478;5.702;2022-09-09T13:13:51;8.13;;;1.88;;
43150;SDS011;28755;51.478;5.702;2022-09-09T13:16:20;9.35;;;2.00;;
43150;SDS011;28755;51.478;5.702;2022-09-09T13:18:48;10.38;;;1.98;;
43150;SDS011;28755;51.478;5.702;2022-09-09T13:21:14;9.43;;;1.55;;
43150;SDS011;28755;51.478;5.702;2022-09-09T13:23:40;10.02;;;1.70;;
43150;SDS011;28755;51.478;5.702;2022-09-09T13:26:18;6.53;;;1.77;;
43150;SDS011;28755;51.478;5.702;2022-09-09T13:28:49;5.07;;;1.27;;
43150;SDS011;28755;51.478;5.702;2022-09-09T13:31:35;7.20;;;1.45;;
43150;SDS011;28755;51.478;5.702;2022-09-09T13:34:25;7.22;;;1.73;;
43150;SDS011;28755;51.478;5.702;2022-09-09T13:37:00;7.03;;;1.35;;
43150;SDS011;28755;51.478;5.702;2022-09-09T13:39:28;5.30;;;1.25;;
43150;SDS011;28755;51.478;5.702;2022-09-09T13:41:54;6.70;;;1.67;;
43150;SDS011;28755;51.478;5.702;2022-09-09T13:44:21;7.07;;;1.25;;
43150;SDS011;28755;51.478;5.702;2022-09-09T13:49:29;6.95;;;1.35;;
43150;SDS011;28755;51.478;5.702;2022-09-09T13:52:05;5.63;;;1.40;;
43150;SDS011;28755;51.478;5.702;2022-09-09T13:54:39;4.82;;;1.25;;
43150;SDS011;28755;51.478;5.702;2022-09-09T13:57:05;5.70;;;1.40;;
43150;SDS011;28755;51.478;5.702;2022-09-09T13:59:50;5.80;;;1.70;;
43150;SDS011;28755;51.478;5.702;2022-09-09T14:02:16;5.50;;;1.77;;
43150;SDS011;28755;51.478;5.702;2022-09-09T14:04:42;5.03;;;1.27;;
43150;SDS011;28755;51.478;5.702;2022-09-09T14:07:12;9.13;;;1.65;;
43150;SDS011;28755;51.478;5.702;2022-09-09T14:09:40;4.15;;;1.30;;
43150;SDS011;28755;51.478;5.702;2022-09-09T14:12:08;3.28;;;1.20;;
43150;SDS011;28755;51.478;5.702;2022-09-09T14:14:39;8.88;;;2.03;;
43150;SDS011;28755;51.478;5.702;2022-09-09T14:17:07;6.93;;;1.20;;
43150;SDS011;28755;51.478;5.702;2022-09-09T14:19:33;5.97;;;1.48;;
43150;SDS011;28755;51.478;5.702;2022-09-09T14:21:58;5.57;;;1.65;;
43150;SDS011;28755;51.478;5.702;2022-09-09T14:24:24;7.38;;;1.27;;
43150;SDS011;28755;51.478;5.702;2022-09-09T14:26:50;5.78;;;1.30;;
43150;SDS011;28755;51.478;5.702;2022-09-09T14:29:16;6.10;;;1.42;;
43150;SDS011;28755;51.478;5.702;2022-09-09T14:31:41;5.38;;;1.30;;
43150;SDS011;28755;51.478;5.702;2022-09-09T14:34:07;5.57;;;1.42;;
43150;SDS011;28755;51.478;5.702;2022-09-09T14:36:32;6.18;;;1.40;;
43150;SDS011;28755;51.478;5.702;2022-09-09T14:38:58;4.03;;;1.30;;
43150;SDS011;28755;51.478;5.702;2022-09-09T14:41:23;5.10;;;1.50;;
43150;SDS011;28755;51.478;5.702;2022-09-09T14:43:50;4.20;;;1.20;;
43150;SDS011;28755;51.478;5.702;2022-09-09T14:46:17;4.85;;;1.30;;
43150;SDS011;28755;51.478;5.702;2022-09-09T14:48:44;3.85;;;1.17;;
43150;SDS011;28755;51.478;5.702;2022-09-09T14:53:44;6.85;;;1.42;;
43150;SDS011;28755;51.478;5.702;2022-09-09T14:56:11;5.53;;;1.98;;
43150;SDS011;28755;51.478;5.702;2022-09-09T14:58:39;7.07;;;1.23;;
43150;SDS011;28755;51.478;5.702;2022-09-09T15:01:06;5.43;;;1.75;;
43150;SDS011;28755;51.478;5.702;2022-09-09T15:03:37;5.25;;;1.55;;
43150;SDS011;28755;51.478;5.702;2022-09-09T15:06:05;5.63;;;1.40;;
43150;SDS011;28755;51.478;5.702;2022-09-09T15:08:39;3.78;;;1.17;;
43150;SDS011;28755;51.478;5.702;2022-09-09T15:11:06;6.57;;;1.48;;
43150;SDS011;28755;51.478;5.702;2022-09-09T15:13:33;5.93;;;1.60;;
43150;SDS011;28755;51.478;5.702;2022-09-09T15:18:32;2.92;;;1.23;;
43150;SDS011;28755;51.478;5.702;2022-09-09T15:20:59;6.18;;;1.58;;
43150;SDS011;28755;51.478;5.702;2022-09-09T15:23:26;5.40;;;1.58;;
43150;SDS011;28755;51.478;5.702;2022-09-09T15:25:52;7.72;;;1.63;;
43150;SDS011;28755;51.478;5.702;2022-09-09T15:28:19;5.38;;;1.35;;
43150;SDS011;28755;51.478;5.702;2022-09-09T15:30:49;9.85;;;2.40;;
43150;SDS011;28755;51.478;5.702;2022-09-09T15:33:16;12.90;;;2.03;;
43150;SDS011;28755;51.478;5.702;2022-09-09T15:35:42;5.60;;;1.48;;
43150;SDS011;28755;51.478;5.702;2022-09-09T15:38:07;4.93;;;1.42;;
43150;SDS011;28755;51.478;5.702;2022-09-09T15:40:33;6.13;;;1.50;;
43150;SDS011;28755;51.478;5.702;2022-09-09T15:42:59;4.82;;;1.33;;
43150;SDS011;28755;51.478;5.702;2022-09-09T15:45:24;5.05;;;1.35;;
43150;SDS011;28755;51.478;5.702;2022-09-09T15:47:50;4.75;;;1.58;;
43150;SDS011;28755;51.478;5.702;2022-09-09T15:50:16;4.90;;;1.58;;
43150;SDS011;28755;51.478;5.702;2022-09-09T15:52:42;6.32;;;1.70;;
43150;SDS011;28755;51.478;5.702;2022-09-09T15:55:07;5.10;;;1.77;;
43150;SDS011;28755;51.478;5.702;2022-09-09T15:57:33;5.47;;;1.58;;
43150;SDS011;28755;51.478;5.702;2022-09-09T16:00:01;7.38;;;1.50;;
43150;SDS011;28755;51.478;5.702;2022-09-09T16:02:28;5.13;;;1.17;;
43150;SDS011;28755;51.478;5.702;2022-09-09T16:04:55;2.78;;;0.90;;
43150;SDS011;28755;51.478;5.702;2022-09-09T16:07:22;4.65;;;1.50;;
43150;SDS011;28755;51.478;5.702;2022-09-09T16:09:48;7.80;;;1.50;;
43150;SDS011;28755;51.478;5.702;2022-09-09T16:12:16;6.47;;;1.63;;
43150;SDS011;28755;51.478;5.702;2022-09-09T16:14:42;5.40;;;1.20;;
43150;SDS011;28755;51.478;5.702;2022-09-09T16:17:07;8.57;;;1.80;;
43150;SDS011;28755;51.478;5.702;2022-09-09T16:19:33;6.28;;;1.48;;
43150;SDS011;28755;51.478;5.702;2022-09-09T16:21:59;5.35;;;1.58;;
43150;SDS011;28755;51.478;5.702;2022-09-09T16:24:26;9.15;;;1.92;;
43150;SDS011;28755;51.478;5.702;2022-09-09T16:26:52;5.18;;;1.40;;
43150;SDS011;28755;51.478;5.702;2022-09-09T16:29:19;2.95;;;1.02;;
43150;SDS011;28755;51.478;5.702;2022-09-09T16:31:47;2.80;;;1.00;;
43150;SDS011;28755;51.478;5.702;2022-09-09T16:34:17;3.35;;;0.80;;
43150;SDS011;28755;51.478;5.702;2022-09-09T16:36:43;3.13;;;0.70;;
43150;SDS011;28755;51.478;5.702;2022-09-09T16:39:10;4.07;;;0.75;;
43150;SDS011;28755;51.478;5.702;2022-09-09T16:41:37;3.75;;;1.00;;
43150;SDS011;28755;51.478;5.702;2022-09-09T16:44:05;4.07;;;1.88;;
43150;SDS011;28755;51.478;5.702;2022-09-09T16:46:34;2.00;;;1.15;;
43150;SDS011;28755;51.478;5.702;2022-09-09T16:49:02;13.63;;;3.13;;
43150;SDS011;28755;51.478;5.702;2022-09-09T16:51:34;6.55;;;2.00;;
43150;SDS011;28755;51.478;5.702;2022-09-09T16:54:06;7.22;;;1.80;;
43150;SDS011;28755;51.478;5.702;2022-09-09T16:56:34;5.65;;;2.10;;
43150;SDS011;28755;51.478;5.702;2022-09-09T16:59:07;8.20;;;2.78;;
43150;SDS011;28755;51.478;5.702;2022-09-09T17:01:35;6.55;;;2.00;;
43150;SDS011;28755;51.478;5.702;2022-09-09T17:04:04;11.63;;;2.35;;
43150;SDS011;28755;51.478;5.702;2022-09-09T17:06:31;9.85;;;2.65;;
43150;SDS011;28755;51.478;5.702;2022-09-09T17:09:10;8.55;;;2.00;;
43150;SDS011;28755;51.478;5.702;2022-09-09T17:11:37;5.20;;;2.17;;
43150;SDS011;28755;51.478;5.702;2022-09-09T17:14:03;3.70;;;1.50;;
43150;SDS011;28755;51.478;5.702;2022-09-09T17:16:31;5.70;;;1.95;;
43150;SDS011;28755;51.478;5.702;2022-09-09T17:18:59;5.07;;;2.30;;
43150;SDS011;28755;51.478;5.702;2022-09-09T17:21:26;6.32;;;2.05;;
43150;SDS011;28755;51.478;5.702;2022-09-09T17:23:53;6.55;;;2.67;;
43150;SDS011;28755;51.478;5.702;2022-09-09T17:26:21;10.32;;;4.38;;
43150;SDS011;28755;51.478;5.702;2022-09-09T17:28:49;7.47;;;3.13;;
43150;SDS011;28755;51.478;5.702;2022-09-09T17:31:15;2.45;;;1.10;;
43150;SDS011;28755;51.478;5.702;2022-09-09T17:33:43;3.38;;;1.00;;
43150;SDS011;28755;51.478;5.702;2022-09-09T17:36:18;2.17;;;1.05;;
43150;SDS011;28755;51.478;5.702;2022-09-09T17:38:47;4.32;;;1.40;;